Portland, New York
Current Conditions -  °F | °C
As of 2:53 AM on Thursday 27 Nov 2014 (Local Time) from KDKK Reporting Station
Overcast Overcast  
Wind Chill: 24°   Ceiling: 3400
Heat Index: 30°   Visibility: 10mi
Dew Point: 26°   Wind: 6mph
Humidity: 85%   Direction: 70°ENE
Pressure: 30.04"   Gusts: NA
Location:  42.38°N, 79.47°W
Report Text: KDKK 270753Z AUTO 07005KT 10SM OVC034 M01/M03 A3004 RMK AO2 SLP182 T10111033
Loading
Personal Weather Stations






























Interactive Weather Map New forecast layout! Learn more

10-Day Weather Forecast

Advertisements
Track Severe Weather on mobile